Accueil
METAR-TAF:

METAR-TAF

Aéroports :

La Chaux-de-Fonds, Suisse

Aéroport régional Les Éplatures

latitude: 47-05-03N, longitude: 006-47-37E, altitude: 1027 m

Observation

Le bulletin a été fait il y a 29 minutes, à 01:20 UTC
Vent 5 kt de sud-ouest, variant entre sud et ouest
Température 17°C
Humidité 88%
Pression 1023 hPa
Visibilité 10 km ou plus
Ciel couvert à une hauteur de 1100 ft

METAR: LSGC 240120Z AUTO 23005KT 180V270 9999 OVC011 17/15 Q1023

Heure: 03:49 (01:49 UTC)

Prévision

Le bulletin a été fait il y a 11 heures et 24 minutes, à 14:25 UTC
Prévision valable du 23 à 15 UTC au 23 à 24 UTC
Vent 10 kt de ouest/sud-ouest
Visibilité 10 km ou plus
Nuages épars à une hauteur de 4000 ft
Evoluant progressivement
du 23 à 20 UTC au 23 à 22 UTC
Visibilité 10 km ou plus
pas de nuages en-dessous de 1500 mètres et pas de cumulonimbus.

TAF: LSGC 231425Z 2315/2324 25010KT 9999 SCT040 BECMG 2320/2322 CAVOK

Observations et prévisions météorologiques de plus de 4000 aéroports (messages METAR et TAF).

Les stations disponibles sont représentées par des disques jaunes et rouges sur la carte.

Passer la souris dessus pour voir le nom de la station.

Cliquer dessus pour voir les observations et prévisions météorologiques.

Pour changer de carte: cliquez sur les boutons verts avec une croix noire pour zoomer, sur le bouton vert avec un tiret pour effectuer un zoom arrière, ou sur les flèches vertes pour les cartes adjacentes.


METAR-TAF: